Time;durP1;ratioP1;P1;durP2;ratioP2;P2;SDS_P1;SDS_P2;PMS_P1;PMS_P2;Temp;Humidity;BMP_temperature;BMP_pressure;BME280_temperature;BME280_humidity;BME280_pressure;Samples;Min_cycle;Max_cycle;Signal;HPM_P1;HPM_P2
2021/10/29 00:00:50;;;;;;;30.20;12.77;;;7.30;97.30;;;;;;5048085;28;20991;-77
2021/10/29 00:03:16;;;;;;;33.03;12.07;;;7.20;97.30;;;;;;5032709;28;20172;-77
2021/10/29 00:05:42;;;;;;;27.70;11.90;;;7.20;97.30;;;;;;5031374;28;20439;-78
2021/10/29 00:08:07;;;;;;;27.83;12.77;;;7.20;97.30;;;;;;5032834;28;20422;-77
2021/10/29 00:10:34;;;;;;;35.03;14.30;;;7.10;97.30;;;;;;5049399;28;20431;-78
2021/10/29 00:13:00;;;;;;;29.30;12.50;;;7.10;97.30;;;;;;5050950;28;20183;-77
2021/10/29 00:15:26;;;;;;;34.80;13.67;;;7.00;97.30;;;;;;5050836;28;20468;-77
2021/10/29 00:17:52;;;;;;;34.43;12.77;;;7.00;97.30;;;;;;5052556;28;20418;-77
2021/10/29 00:20:17;;;;;;;31.60;12.73;;;6.90;97.30;;;;;;5050758;28;20576;-77
2021/10/29 00:22:43;;;;;;;32.10;12.87;;;6.90;97.30;;;;;;5050890;28;20512;-76
2021/10/29 00:25:09;;;;;;;33.07;13.77;;;6.90;97.30;;;;;;5050161;28;20666;-76
2021/10/29 00:27:35;;;;;;;41.97;14.27;;;6.90;97.30;;;;;;5051321;28;20180;-75
2021/10/29 00:30:01;;;;;;;27.33;12.77;;;6.90;97.30;;;;;;5050251;28;20179;-74
2021/10/29 00:32:28;;;;;;;31.73;13.60;;;6.90;97.30;;;;;;5050063;28;20466;-76
2021/10/29 00:34:54;;;;;;;31.97;13.10;;;6.90;97.30;;;;;;5051502;28;20233;-76
2021/10/29 00:37:20;;;;;;;29.13;12.10;;;6.80;97.30;;;;;;5051249;28;20422;-76
2021/10/29 00:39:45;;;;;;;30.93;12.40;;;6.90;97.30;;;;;;5051384;28;20211;-76
2021/10/29 00:42:11;;;;;;;32.97;13.77;;;6.80;97.30;;;;;;5051568;28;20179;-75
2021/10/29 00:44:36;;;;;;;30.90;13.83;;;6.80;97.30;;;;;;5066576;28;20647;-75
2021/10/29 00:47:02;;;;;;;31.97;13.83;;;6.80;97.30;;;;;;5050145;28;20172;-76
2021/10/29 00:49:28;;;;;;;35.17;14.77;;;6.80;97.30;;;;;;5050990;28;20553;-75
2021/10/29 00:51:53;;;;;;;35.50;13.30;;;6.80;97.30;;;;;;5051396;28;20191;-76
2021/10/29 00:54:20;;;;;;;29.73;13.07;;;6.80;97.30;;;;;;5049941;28;20210;-75
2021/10/29 00:56:47;;;;;;;28.17;11.87;;;6.80;97.30;;;;;;5049522;28;20187;-76
2021/10/29 00:59:13;;;;;;;34.10;13.73;;;6.80;97.30;;;;;;5066353;28;20829;-76
2021/10/29 01:01:39;;;;;;;35.00;13.87;;;6.70;97.30;;;;;;5049841;28;20839;-75
2021/10/29 01:04:05;;;;;;;32.30;13.17;;;6.70;97.30;;;;;;5050791;28;20410;-76
2021/10/29 01:06:32;;;;;;;33.00;13.53;;;6.70;97.30;;;;;;5051731;28;20172;-76
2021/10/29 01:08:59;;;;;;;34.13;12.90;;;6.70;97.30;;;;;;5051205;28;20437;-76
2021/10/29 01:11:27;;;;;;;37.60;14.47;;;6.70;97.30;;;;;;5050788;28;20410;-76
2021/10/29 01:13:52;;;;;;;31.30;13.90;;;6.70;97.30;;;;;;5066326;28;20422;-76
2021/10/29 01:16:21;;;;;;;32.77;13.40;;;6.60;97.30;;;;;;5049751;28;20414;-77
2021/10/29 01:18:47;;;;;;;38.37;14.93;;;6.50;97.30;;;;;;5050041;28;20233;-76
2021/10/29 01:21:13;;;;;;;29.50;12.30;;;6.40;97.30;;;;;;5049886;28;20450;-76
2021/10/29 01:23:39;;;;;;;31.87;13.70;;;6.40;97.30;;;;;;5054847;28;20415;-76
2021/10/29 01:26:08;;;;;;;32.00;13.47;;;6.30;97.30;;;;;;5057526;28;20430;-77
2021/10/29 01:28:34;;;;;;;27.50;13.20;;;6.30;97.30;;;;;;5056282;28;20738;-76
2021/10/29 01:30:59;;;;;;;32.83;12.27;;;6.20;97.30;;;;;;5056886;28;20453;-76
2021/10/29 01:33:25;;;;;;;45.73;13.27;;;6.20;97.30;;;;;;5056601;28;20517;-75
2021/10/29 01:35:51;;;;;;;35.00;13.43;;;6.20;97.30;;;;;;5056225;28;20203;-77
2021/10/29 01:38:17;;;;;;;37.20;13.97;;;6.20;97.30;;;;;;5056478;28;20183;-76
2021/10/29 01:40:42;;;;;;;36.90;13.03;;;6.20;97.30;;;;;;5072833;28;20477;-76
2021/10/29 01:43:08;;;;;;;34.23;13.23;;;6.10;97.30;;;;;;5057725;28;20224;-75
2021/10/29 01:45:34;;;;;;;35.93;13.00;;;6.10;97.30;;;;;;5057600;28;20198;-78
2021/10/29 01:48:00;;;;;;;36.63;14.97;;;6.10;97.30;;;;;;5056185;28;20276;-79
2021/10/29 01:50:26;;;;;;;37.47;13.33;;;6.10;97.30;;;;;;5055727;28;20184;-80
2021/10/29 01:52:52;;;;;;;33.63;13.73;;;6.10;97.30;;;;;;5057437;28;20410;-75
2021/10/29 01:55:18;;;;;;;36.77;15.57;;;6.00;97.30;;;;;;5056061;28;20440;-76
2021/10/29 01:57:44;;;;;;;41.07;15.50;;;6.00;97.30;;;;;;5055852;28;20191;-75
2021/10/29 02:00:11;;;;;;;36.73;13.50;;;5.90;97.30;;;;;;5056282;28;20580;-75
2021/10/29 02:02:37;;;;;;;31.07;12.50;;;5.90;97.30;;;;;;5056709;28;20422;-76
2021/10/29 02:05:04;;;;;;;37.63;13.90;;;5.80;97.30;;;;;;5055765;28;20434;-76
2021/10/29 02:07:29;;;;;;;34.37;13.23;;;5.80;97.30;;;;;;5056344;28;20424;-76
2021/10/29 02:09:55;;;;;;;32.97;13.17;;;5.70;97.30;;;;;;5056330;28;20414;-75
2021/10/29 02:12:21;;;;;;;35.67;13.37;;;5.70;97.30;;;;;;5056198;28;20207;-76
2021/10/29 02:14:46;;;;;;;35.60;13.80;;;5.70;97.30;;;;;;5055890;28;20200;-76
2021/10/29 02:17:12;;;;;;;34.87;12.70;;;5.70;97.30;;;;;;5056139;28;20521;-76
2021/10/29 02:19:37;;;;;;;31.17;11.63;;;5.70;97.30;;;;;;5055769;28;20183;-76
2021/10/29 02:22:03;;;;;;;32.07;14.10;;;5.70;97.30;;;;;;5056801;28;20207;-76
2021/10/29 02:24:29;;;;;;;34.27;13.30;;;5.70;97.30;;;;;;5055841;28;20632;-75
2021/10/29 02:26:54;;;;;;;38.23;13.23;;;5.60;97.30;;;;;;5055570;28;20178;-76
2021/10/29 02:29:20;;;;;;;38.10;14.33;;;5.60;97.30;;;;;;5056935;28;20214;-76
2021/10/29 02:31:46;;;;;;;37.13;14.40;;;5.60;97.30;;;;;;5055064;28;20215;-75
2021/10/29 02:34:11;;;;;;;41.00;14.37;;;5.60;97.30;;;;;;5053437;28;20206;-76
2021/10/29 02:36:37;;;;;;;37.20;13.80;;;5.60;97.30;;;;;;5052284;28;20209;-76
2021/10/29 02:39:03;;;;;;;36.67;13.10;;;5.60;97.30;;;;;;5052491;28;20171;-76
2021/10/29 02:41:29;;;;;;;50.20;14.13;;;5.50;97.30;;;;;;5052245;28;20286;-76
2021/10/29 02:43:55;;;;;;;41.43;14.60;;;5.50;97.30;;;;;;5053757;28;20971;-76
2021/10/29 02:46:21;;;;;;;40.80;16.03;;;5.50;97.30;;;;;;5053236;28;20179;-76
2021/10/29 02:48:47;;;;;;;45.13;15.03;;;5.60;97.30;;;;;;5068887;28;20199;-76
2021/10/29 02:51:12;;;;;;;38.63;14.07;;;5.50;97.30;;;;;;5051980;28;20403;-76
2021/10/29 02:53:38;;;;;;;30.37;11.67;;;5.50;97.30;;;;;;5051850;28;20198;-76
2021/10/29 02:56:05;;;;;;;30.73;13.20;;;5.40;97.30;;;;;;5053367;28;20280;-76
2021/10/29 02:58:32;;;;;;;39.83;14.60;;;5.40;97.30;;;;;;5053228;28;20912;-76
2021/10/29 03:00:59;;;;;;;35.80;14.00;;;5.40;97.30;;;;;;5051922;28;20458;-76
2021/10/29 03:03:24;;;;;;;33.23;13.23;;;5.30;97.30;;;;;;5051873;28;20407;-75
2021/10/29 03:05:50;;;;;;;43.83;15.87;;;5.40;97.30;;;;;;5051674;28;20434;-75
2021/10/29 03:08:16;;;;;;;42.63;15.60;;;5.40;97.30;;;;;;5052204;28;20176;-79
2021/10/29 03:10:41;;;;;;;44.33;15.70;;;5.40;97.30;;;;;;5053408;28;20301;-78
2021/10/29 03:13:08;;;;;;;42.03;14.90;;;5.40;97.30;;;;;;5053248;28;20450;-78
2021/10/29 03:15:34;;;;;;;33.73;13.93;;;5.40;97.30;;;;;;5051571;28;20200;-78
2021/10/29 03:18:00;;;;;;;35.90;13.87;;;5.30;97.30;;;;;;5052136;28;20418;-78
2021/10/29 03:20:25;;;;;;;33.13;12.40;;;5.20;97.30;;;;;;5051932;28;20488;-78
2021/10/29 03:22:51;;;;;;;38.87;14.63;;;5.20;97.30;;;;;;5051809;28;20276;-79
2021/10/29 03:25:17;;;;;;;38.40;13.23;;;5.20;97.30;;;;;;5052063;28;20203;-79
2021/10/29 03:27:42;;;;;;;35.00;13.43;;;5.20;97.30;;;;;;5051698;28;20247;-79
2021/10/29 03:30:09;;;;;;;42.13;13.67;;;5.20;97.30;;;;;;5052970;28;20164;-79
2021/10/29 03:32:35;;;;;;;38.13;14.23;;;5.20;97.30;;;;;;5052299;28;20557;-79
2021/10/29 03:35:01;;;;;;;34.03;14.13;;;5.20;97.30;;;;;;5051790;28;20473;-79
2021/10/29 03:45:21;;;;;;;34.53;14.47;;;5.00;97.30;;;;;;5052280;28;20812;-78
2021/10/29 03:47:54;;;;;;;38.40;13.50;;;5.00;97.30;;;;;;5045490;28;20268;-78
2021/10/29 03:50:25;;;;;;;40.50;14.73;;;5.00;97.30;;;;;;5032753;28;20185;-79
2021/10/29 03:52:55;;;;;;;36.90;13.77;;;5.00;97.30;;;;;;5031980;28;20439;-78
2021/10/29 03:55:25;;;;;;;38.70;13.80;;;5.10;97.30;;;;;;5031359;28;20454;-79
2021/10/29 03:57:51;;;;;;;41.23;15.07;;;5.00;97.30;;;;;;5031429;28;20487;-78
2021/10/29 04:00:17;;;;;;;38.30;14.63;;;5.00;97.30;;;;;;5031491;28;20459;-78
2021/10/29 04:02:42;;;;;;;33.80;12.70;;;5.00;97.30;;;;;;5031235;28;20187;-78
2021/10/29 04:05:08;;;;;;;34.20;13.77;;;5.00;97.30;;;;;;5031772;28;20202;-79
2021/10/29 04:07:34;;;;;;;32.33;12.77;;;5.00;97.30;;;;;;5064262;28;20172;-78
2021/10/29 04:09:59;;;;;;;36.60;13.50;;;5.00;97.30;;;;;;5050971;28;20182;-79
2021/10/29 04:12:25;;;;;;;35.10;13.47;;;5.00;97.30;;;;;;5052348;28;20172;-79
2021/10/29 04:14:51;;;;;;;40.30;14.90;;;5.00;97.30;;;;;;5051122;28;20286;-78
2021/10/29 04:17:17;;;;;;;36.33;13.83;;;4.90;97.30;;;;;;5051184;28;20865;-80
2021/10/29 04:19:42;;;;;;;39.47;14.27;;;4.90;97.30;;;;;;5050701;28;20665;-78
2021/10/29 04:22:08;;;;;;;32.67;13.33;;;4.90;97.30;;;;;;5050806;28;20208;-79
2021/10/29 04:24:33;;;;;;;30.13;12.37;;;4.90;97.30;;;;;;5050768;28;20196;-80
2021/10/29 04:27:00;;;;;;;41.87;13.80;;;4.80;97.30;;;;;;5050784;28;20345;-78
2021/10/29 04:29:28;;;;;;;38.40;13.67;;;4.70;97.30;;;;;;5050403;28;20262;-79
2021/10/29 04:31:54;;;;;;;32.83;13.40;;;4.70;97.30;;;;;;5051988;28;20461;-79
2021/10/29 04:34:25;;;;;;;31.37;13.20;;;4.70;97.30;;;;;;5051571;28;20833;-77
2021/10/29 04:36:53;;;;;;;30.97;12.27;;;4.70;97.30;;;;;;5050467;28;20183;-79
2021/10/29 04:39:19;;;;;;;37.90;11.90;;;4.70;97.30;;;;;;5050321;28;20410;-79
2021/10/29 04:41:47;;;;;;;31.13;12.10;;;4.60;97.30;;;;;;5050248;28;20482;-78
2021/10/29 04:44:14;;;;;;;34.67;12.63;;;4.60;97.30;;;;;;5050345;28;20504;-78
2021/10/29 04:46:40;;;;;;;37.93;13.40;;;4.60;97.30;;;;;;5050488;28;20905;-79
2021/10/29 04:49:06;;;;;;;35.90;12.80;;;4.50;97.30;;;;;;5067031;28;20454;-78
2021/10/29 04:51:33;;;;;;;35.47;11.70;;;4.60;97.30;;;;;;5050217;28;20188;-79
2021/10/29 04:53:59;;;;;;;31.13;12.53;;;4.60;97.30;;;;;;5050473;28;20976;-78
2021/10/29 04:56:24;;;;;;;32.83;12.90;;;4.60;97.30;;;;;;5050308;28;20428;-78
2021/10/29 04:58:50;;;;;;;30.00;11.53;;;4.70;97.30;;;;;;5049703;28;20508;-79
2021/10/29 05:01:16;;;;;;;34.97;13.53;;;4.60;97.30;;;;;;5050516;28;20253;-78
2021/10/29 05:03:42;;;;;;;31.53;13.60;;;4.60;97.30;;;;;;5050370;28;20225;-78
2021/10/29 05:06:08;;;;;;;28.70;12.80;;;4.50;97.30;;;;;;5050850;28;20472;-77
2021/10/29 05:08:36;;;;;;;31.57;13.03;;;4.40;97.30;;;;;;5049677;28;20458;-77
2021/10/29 05:11:01;;;;;;;27.20;10.50;;;4.40;97.30;;;;;;5049806;28;20430;-77
2021/10/29 05:13:27;;;;;;;31.37;12.43;;;4.40;97.30;;;;;;5049798;28;20744;-78
2021/10/29 05:15:53;;;;;;;37.07;12.07;;;4.50;97.30;;;;;;5049753;28;20930;-77
2021/10/29 05:18:20;;;;;;;37.07;13.03;;;4.50;97.30;;;;;;5051275;28;20467;-77
2021/10/29 05:20:46;;;;;;;31.10;11.30;;;4.50;97.30;;;;;;5050944;28;20716;-77
2021/10/29 05:23:12;;;;;;;33.10;12.47;;;4.60;97.30;;;;;;5049236;28;20462;-77
2021/10/29 05:25:38;;;;;;;27.83;11.73;;;4.60;97.30;;;;;;5066310;28;20250;-77
2021/10/29 05:28:04;;;;;;;30.90;11.83;;;4.60;97.30;;;;;;5049280;28;20172;-77
2021/10/29 05:30:30;;;;;;;38.43;14.30;;;4.50;97.30;;;;;;5066283;28;20497;-77
2021/10/29 05:32:56;;;;;;;30.23;11.57;;;4.50;97.30;;;;;;5049606;28;20465;-77
2021/10/29 05:35:21;;;;;;;32.37;13.60;;;4.50;97.30;;;;;;5050340;28;20433;-77
2021/10/29 05:37:47;;;;;;;30.70;12.20;;;4.50;97.30;;;;;;5050982;28;20633;-77
2021/10/29 05:40:13;;;;;;;36.67;13.17;;;4.50;97.30;;;;;;5065923;28;20201;-77
2021/10/29 05:42:39;;;;;;;32.40;12.27;;;4.40;97.30;;;;;;5049430;28;20222;-77
2021/10/29 05:45:08;;;;;;;30.53;11.73;;;4.40;97.30;;;;;;5050157;28;20430;-78
2021/10/29 05:47:34;;;;;;;29.90;11.47;;;4.40;97.30;;;;;;5049502;28;20229;-79
2021/10/29 05:50:00;;;;;;;33.97;13.37;;;4.30;97.30;;;;;;5050817;28;20410;-78
2021/10/29 05:52:29;;;;;;;28.37;11.70;;;4.30;97.30;;;;;;5052525;28;20505;-78
2021/10/29 05:57:20;;;;;;;41.70;12.47;;;4.30;97.30;;;;;;5050936;28;20415;-79
2021/10/29 05:59:46;;;;;;;28.40;13.10;;;4.30;97.30;;;;;;5049648;28;20244;-79
2021/10/29 06:02:12;;;;;;;26.57;11.80;;;4.30;97.30;;;;;;5050417;28;20632;-78
2021/10/29 06:04:37;;;;;;;28.53;13.00;;;4.30;97.30;;;;;;5049421;28;20310;-78
2021/10/29 06:07:04;;;;;;;31.43;12.27;;;4.20;97.30;;;;;;5050017;28;20176;-79
2021/10/29 06:09:29;;;;;;;29.50;11.33;;;4.20;97.30;;;;;;5050464;28;20414;-78
2021/10/29 06:11:56;;;;;;;33.93;12.07;;;4.20;97.30;;;;;;5053641;28;20421;-78
2021/10/29 06:14:22;;;;;;;32.07;12.70;;;4.20;97.30;;;;;;5053398;28;20589;-79
2021/10/29 06:16:47;;;;;;;38.23;15.50;;;4.30;97.30;;;;;;5053718;28;20422;-79
2021/10/29 06:19:13;;;;;;;41.47;15.23;;;4.30;97.30;;;;;;5053057;28;20414;-78
2021/10/29 06:21:52;;;;;;;35.20;14.07;;;4.30;97.30;;;;;;5053312;28;20215;-78
2021/10/29 06:24:18;;;;;;;37.97;13.33;;;4.30;97.30;;;;;;5070050;28;20432;-79
2021/10/29 06:26:49;;;;;;;32.73;13.53;;;4.30;97.30;;;;;;5069540;28;20414;-78
2021/10/29 06:29:15;;;;;;;37.87;12.67;;;4.30;97.30;;;;;;5069935;28;20171;-78
2021/10/29 06:31:41;;;;;;;35.37;13.63;;;4.40;97.30;;;;;;5069149;28;21025;-78
2021/10/29 06:34:07;;;;;;;41.23;13.57;;;4.40;97.30;;;;;;5053559;28;20871;-79
2021/10/29 06:36:33;;;;;;;35.60;11.83;;;4.40;97.30;;;;;;5053829;28;20502;-78
2021/10/29 06:39:00;;;;;;;37.90;16.13;;;4.40;97.30;;;;;;5054335;28;20446;-78
2021/10/29 06:41:26;;;;;;;36.17;13.63;;;4.50;97.30;;;;;;5055981;28;20295;-78
2021/10/29 06:44:09;;;;;;;34.13;14.47;;;4.50;97.30;;;;;;5054434;28;20430;-78
2021/10/29 06:46:47;;;;;;;33.70;13.60;;;4.60;97.30;;;;;;5068776;28;20497;-78
2021/10/29 06:49:20;;;;;;;38.00;14.77;;;4.60;97.30;;;;;;5053298;28;20410;-79
2021/10/29 06:52:19;;;;;;;44.00;14.63;;;4.70;97.30;;;;;;5052094;28;20505;-79
2021/10/29 07:00:23;;;;;;;38.97;14.60;;;4.80;97.30;;;;;;5053871;28;20476;-76
2021/10/29 07:41:09;;;;;;;33.63;12.70;;;6.70;97.30;;;;;;5052966;28;20645;-75
2021/10/29 07:43:49;;;;;;;29.50;12.93;;;6.80;97.30;;;;;;5049546;28;20473;-74
2021/10/29 07:46:15;;;;;;;32.50;12.93;;;6.90;97.30;;;;;;5050974;28;20406;-75
2021/10/29 07:48:42;;;;;;;35.83;14.90;;;7.10;97.30;;;;;;5051357;28;20549;-78
2021/10/29 07:51:07;;;;;;;32.50;13.37;;;7.20;97.30;;;;;;5051403;28;20627;-78
2021/10/29 07:53:34;;;;;;;26.00;11.83;;;7.30;97.30;;;;;;5051048;28;20426;-78
2021/10/29 07:56:04;;;;;;;34.43;13.70;;;7.40;97.30;;;;;;5067712;28;20507;-78
2021/10/29 07:58:31;;;;;;;44.60;12.87;;;7.60;97.30;;;;;;5050906;28;20931;-78
2021/10/29 08:00:57;;;;;;;33.80;12.13;;;7.70;97.30;;;;;;5050664;28;21040;-78
2021/10/29 08:03:23;;;;;;;33.60;12.70;;;7.80;97.30;;;;;;5052406;28;20441;-78
2021/10/29 08:05:49;;;;;;;32.47;13.10;;;8.00;97.30;;;;;;5050660;28;20434;-78
2021/10/29 08:08:19;;;;;;;30.87;12.87;;;8.00;97.30;;;;;;5067467;28;20176;-78
2021/10/29 08:10:45;;;;;;;28.87;12.20;;;8.20;97.30;;;;;;5051250;28;20554;-78
2021/10/29 08:13:11;;;;;;;31.07;13.87;;;8.40;97.30;;;;;;5051115;28;20411;-78
2021/10/29 08:15:39;;;;;;;34.43;13.63;;;8.50;97.30;;;;;;5050821;28;20449;-78
2021/10/29 08:18:07;;;;;;;34.63;12.70;;;8.60;97.30;;;;;;5050761;28;20414;-78
2021/10/29 08:20:34;;;;;;;32.70;15.17;;;8.80;97.30;;;;;;5067183;28;20553;-78
2021/10/29 08:23:00;;;;;;;30.73;14.00;;;8.90;97.30;;;;;;5050379;28;20468;-78
2021/10/29 08:25:26;;;;;;;29.23;12.53;;;9.00;97.30;;;;;;5050800;28;20725;-78
2021/10/29 08:27:53;;;;;;;30.00;13.77;;;9.20;97.30;;;;;;5051837;28;20406;-78
2021/10/29 08:30:21;;;;;;;28.57;12.27;;;9.30;97.30;;;;;;5050693;28;20630;-78
2021/10/29 08:32:47;;;;;;;32.07;13.00;;;9.40;97.30;;;;;;5049589;28;20493;-78
2021/10/29 08:35:13;;;;;;;36.60;12.40;;;9.50;97.30;;;;;;5067097;28;20939;-78
2021/10/29 08:37:41;;;;;;;25.30;11.70;;;9.60;97.30;;;;;;5051779;28;20203;-79
2021/10/29 08:40:10;;;;;;;29.83;12.77;;;9.70;97.30;;;;;;5050417;28;20211;-78
2021/10/29 08:42:36;;;;;;;27.30;11.83;;;9.80;97.30;;;;;;5051510;28;20497;-78
2021/10/29 08:45:06;;;;;;;23.93;11.27;;;10.00;97.30;;;;;;5050147;28;20521;-78
2021/10/29 08:47:35;;;;;;;26.97;12.57;;;10.20;97.30;;;;;;5050237;28;20931;-78
2021/10/29 08:50:02;;;;;;;23.90;11.50;;;10.30;97.30;;;;;;5051462;28;20406;-78
2021/10/29 08:52:28;;;;;;;23.83;10.60;;;10.40;97.30;;;;;;5051812;28;20406;-78
2021/10/29 08:54:54;;;;;;;28.63;12.10;;;10.40;97.30;;;;;;5050044;28;20591;-78
2021/10/29 08:57:21;;;;;;;27.23;11.87;;;10.60;97.30;;;;;;5050469;28;20221;-78
2021/10/29 08:59:50;;;;;;;30.63;13.27;;;10.70;97.30;;;;;;5050111;28;20406;-79
2021/10/29 09:02:21;;;;;;;24.33;12.33;;;10.80;97.30;;;;;;5049857;28;20592;-78
2021/10/29 09:33:00;;;;;;;30.30;11.90;;;12.20;97.30;;;;;;5048160;28;20457;-78
2021/10/29 09:35:29;;;;;;;26.20;11.20;;;12.30;97.00;;;;;;5022382;28;20463;-78
2021/10/29 09:37:54;;;;;;;26.23;10.97;;;12.30;97.30;;;;;;5009875;28;20506;-78
2021/10/29 09:40:23;;;;;;;25.57;11.77;;;12.40;97.20;;;;;;5010223;28;20421;-78
2021/10/29 09:42:51;;;;;;;29.67;11.30;;;12.50;97.00;;;;;;5010216;28;20181;-78
2021/10/29 09:45:27;;;;;;;29.40;11.70;;;12.60;97.30;;;;;;5013805;28;20566;-77
2021/10/29 09:48:13;;;;;;;19.77;9.50;;;12.80;97.30;;;;;;5015058;28;20825;-77
2021/10/29 09:50:51;;;;;;;22.33;10.80;;;12.90;97.30;;;;;;5013401;28;20423;-77
2021/10/29 09:58:52;;;;;;;24.27;11.00;;;13.20;96.40;;;;;;5015055;28;20426;-75
2021/10/29 10:01:22;;;;;;;23.33;10.80;;;13.30;96.00;;;;;;5013555;28;20586;-74
2021/10/29 10:03:50;;;;;;;26.63;10.17;;;13.40;95.00;;;;;;4996519;28;20413;-74
2021/10/29 10:06:19;;;;;;;25.70;11.87;;;13.40;95.80;;;;;;4995456;28;20435;-75
2021/10/29 10:08:46;;;;;;;26.47;11.17;;;13.60;95.30;;;;;;4994739;28;20416;-75
2021/10/29 10:11:14;;;;;;;19.93;9.83;;;13.70;95.80;;;;;;4993292;28;20751;-75
2021/10/29 10:13:41;;;;;;;19.90;10.30;;;13.80;94.90;;;;;;4993253;28;20476;-75
2021/10/29 10:16:07;;;;;;;23.87;10.80;;;13.90;94.20;;;;;;4993671;28;20445;-74
2021/10/29 10:18:34;;;;;;;34.17;12.53;;;14.00;94.50;;;;;;4993731;28;20458;-75
2021/10/29 10:21:03;;;;;;;22.33;11.00;;;14.00;94.50;;;;;;4993189;28;21024;-76
2021/10/29 10:23:38;;;;;;;23.33;10.83;;;14.10;93.60;;;;;;4993165;28;20459;-75
2021/10/29 10:40:38;;;;;;;21.23;11.40;;;14.50;91.80;;;;;;5034287;28;20411;-75
2021/10/29 10:46:04;;;;;;;21.17;11.07;;;14.80;91.90;;;;;;5033959;28;20418;-75
2021/10/29 10:54:22;;;;;;;19.80;10.73;;;15.30;90.10;;;;;;5033639;28;20743;-75
2021/10/29 10:57:09;;;;;;;20.73;9.70;;;15.30;89.80;;;;;;5031683;28;20411;-75
2021/10/29 11:11:00;;;;;;;19.20;9.47;;;16.10;88.40;;;;;;5033389;28;20403;-75
2021/10/29 11:13:46;;;;;;;19.40;9.10;;;16.20;88.40;;;;;;5031768;28;20411;-76
2021/10/29 11:16:24;;;;;;;17.53;9.00;;;16.30;87.40;;;;;;5033136;28;20936;-76
2021/10/29 11:18:56;;;;;;;16.67;9.17;;;16.40;87.60;;;;;;5031494;28;20403;-76
2021/10/29 11:21:28;;;;;;;15.73;8.30;;;16.50;86.00;;;;;;5031657;28;20553;-76
2021/10/29 11:23:59;;;;;;;17.90;8.10;;;16.60;84.10;;;;;;5031774;28;20400;-75
2021/10/29 11:26:28;;;;;;;16.50;8.17;;;16.80;86.10;;;;;;5031909;28;20415;-76
2021/10/29 11:28:55;;;;;;;12.50;7.67;;;17.00;84.80;;;;;;5031567;28;20422;-76
2021/10/29 11:31:29;;;;;;;14.80;8.50;;;17.00;85.90;;;;;;5031305;28;20503;-75
2021/10/29 11:33:59;;;;;;;14.60;7.47;;;17.10;86.10;;;;;;5031953;28;20834;-76
2021/10/29 11:36:32;;;;;;;10.67;6.60;;;17.20;86.70;;;;;;5065739;28;20419;-75
2021/10/29 11:39:00;;;;;;;13.60;7.13;;;17.30;85.90;;;;;;5051208;28;20411;-77
2021/10/29 11:41:28;;;;;;;15.67;7.60;;;17.40;84.40;;;;;;5049912;28;21002;-75
2021/10/29 11:44:07;;;;;;;11.47;6.73;;;17.40;85.00;;;;;;5031170;28;20415;-74
2021/10/29 11:46:35;;;;;;;12.37;7.33;;;17.40;85.30;;;;;;5031050;28;20423;-75
2021/10/29 11:49:11;;;;;;;11.20;7.07;;;17.50;83.90;;;;;;5032577;28;21036;-75
2021/10/29 11:51:38;;;;;;;12.07;7.20;;;17.60;83.60;;;;;;5030948;28;20423;-76
2021/10/29 11:57:26;;;;;;;10.00;7.03;;;17.80;83.20;;;;;;5010018;28;20428;-74
2021/10/29 12:00:13;;;;;;;15.73;8.20;;;17.90;83.80;;;;;;5030010;28;20423;-76
2021/10/29 12:08:19;;;;;;;15.20;8.20;;;18.10;82.90;;;;;;5043472;28;20494;-76
2021/10/29 12:10:46;;;;;;;13.00;7.10;;;18.30;82.60;;;;;;5050181;28;20502;-76
2021/10/29 12:13:11;;;;;;;13.30;8.20;;;18.40;82.40;;;;;;5050723;28;20804;-75
2021/10/29 12:15:37;;;;;;;18.10;9.40;;;18.50;82.10;;;;;;5051801;28;20433;-76
2021/10/29 12:18:06;;;;;;;15.47;8.70;;;18.80;82.60;;;;;;5050406;28;20642;-76
2021/10/29 12:20:38;;;;;;;18.40;8.90;;;18.90;81.60;;;;;;5050692;28;20750;-76
2021/10/29 12:23:14;;;;;;;19.60;10.03;;;19.00;81.40;;;;;;5050332;28;20410;-75
2021/10/29 12:25:55;;;;;;;15.70;9.80;;;19.10;80.90;;;;;;5050049;28;20943;-76
2021/10/29 12:28:33;;;;;;;16.10;8.27;;;19.20;80.20;;;;;;5067125;28;20446;-76
2021/10/29 12:31:21;;;;;;;18.20;10.10;;;19.40;81.40;;;;;;5050279;28;20513;-76
2021/10/29 12:34:11;;;;;;;17.63;8.80;;;19.50;80.30;;;;;;5051631;28;20438;-76
2021/10/29 13:04:03;;;;;;;16.33;9.03;;;20.80;78.40;;;;;;5050961;28;20430;-76
2021/10/29 13:06:43;;;;;;;16.20;9.90;;;20.90;78.00;;;;;;5049770;28;20210;-77
2021/10/29 13:09:19;;;;;;;19.07;10.20;;;20.90;77.90;;;;;;5049883;28;20776;-76
2021/10/29 13:12:01;;;;;;;16.37;10.17;;;20.80;78.30;;;;;;5049452;28;20441;-75
2021/10/29 13:14:32;;;;;;;18.50;10.77;;;20.80;78.40;;;;;;5049349;28;20438;-76
2021/10/29 13:17:00;;;;;;;16.37;9.50;;;20.70;77.70;;;;;;5049667;28;20414;-76
2021/10/29 13:54:41;;;;;;;20.93;10.83;;;22.40;77.20;;;;;;5053586;28;20444;-80
2021/10/29 13:57:25;;;;;;;21.93;11.33;;;22.40;76.80;;;;;;5068626;28;20422;-79
2021/10/29 14:24:31;;;;;;;21.27;11.80;;;22.00;77.00;;;;;;5051050;28;20441;-79
2021/10/29 14:30:26;;;;;;;23.67;13.40;;;22.20;76.60;;;;;;5051259;28;20409;-79
2021/10/29 14:34:59;;;;;;;19.67;11.67;;;22.40;77.40;;;;;;5054274;28;20430;-78
2021/10/29 14:37:39;;;;;;;18.20;11.20;;;22.40;77.40;;;;;;5052873;28;20417;-78
2021/10/29 14:40:23;;;;;;;23.10;11.40;;;22.50;77.00;;;;;;5053112;28;20942;-78
2021/10/29 14:42:58;;;;;;;21.20;12.17;;;22.60;76.40;;;;;;5052681;28;20422;-78
2021/10/29 15:25:02;;;;;;;38.83;20.80;;;17.80;87.90;;;;;;5053808;28;20891;-79
2021/10/29 15:30:09;;;;;;;38.93;19.40;;;17.10;89.40;;;;;;5052932;28;20942;-77
2021/10/29 15:32:54;;;;;;;31.13;18.00;;;16.80;90.50;;;;;;5051208;28;20549;-81
2021/10/29 15:43:50;;;;;;;45.27;21.47;;;15.60;93.40;;;;;;5051294;28;20858;-77
2021/10/29 15:46:20;;;;;;;40.40;21.87;;;15.30;94.00;;;;;;5068013;28;20476;-79
2021/10/29 15:51:14;;;;;;;39.17;20.30;;;15.00;94.70;;;;;;5052796;28;20768;-78
2021/10/29 15:53:43;;;;;;;45.73;23.67;;;14.80;95.00;;;;;;5051425;28;20414;-77
2021/10/29 15:56:31;;;;;;;41.33;21.97;;;14.70;95.50;;;;;;5052482;28;20581;-78
2021/10/29 15:59:10;;;;;;;35.40;19.23;;;14.50;95.80;;;;;;5051102;28;20425;-78
2021/10/29 16:17:48;;;;;;;58.20;28.70;;;13.30;97.30;;;;;;5052533;28;20416;-77
2021/10/29 16:20:15;;;;;;;56.43;25.80;;;13.20;97.30;;;;;;5050890;28;20778;-78
2021/10/29 16:22:41;;;;;;;53.33;25.97;;;13.10;97.30;;;;;;5051735;28;20446;-78
2021/10/29 16:25:11;;;;;;;51.83;24.57;;;13.00;97.30;;;;;;5051976;28;20491;-78
2021/10/29 16:27:57;;;;;;;43.77;22.90;;;12.90;97.30;;;;;;5050645;28;20445;-79
2021/10/29 16:30:26;;;;;;;48.60;23.90;;;12.70;97.30;;;;;;5050914;28;20418;-78
2021/10/29 16:35:20;;;;;;;49.10;24.03;;;12.60;97.30;;;;;;5052298;28;20422;-79
2021/10/29 16:37:46;;;;;;;45.87;22.30;;;12.60;97.30;;;;;;5051550;28;20490;-76
2021/10/29 16:40:14;;;;;;;49.27;23.80;;;12.50;97.30;;;;;;5050108;28;20422;-76
2021/10/29 16:42:41;;;;;;;48.90;22.37;;;12.50;97.30;;;;;;5049994;28;20480;-76
2021/10/29 16:45:09;;;;;;;51.23;22.90;;;12.50;97.30;;;;;;5050650;28;20434;-76
2021/10/29 16:47:35;;;;;;;53.87;21.60;;;12.40;97.30;;;;;;5049789;28;20429;-76
2021/10/29 16:50:03;;;;;;;54.37;24.70;;;12.30;97.30;;;;;;5050180;28;20457;-76
2021/10/29 16:52:29;;;;;;;45.27;21.10;;;12.10;97.30;;;;;;5049933;28;20407;-76
2021/10/29 16:54:55;;;;;;;51.10;24.90;;;11.90;97.30;;;;;;5049457;28;20537;-76
2021/10/29 16:57:21;;;;;;;52.00;23.27;;;11.70;97.30;;;;;;5050133;28;20506;-76
2021/10/29 16:59:46;;;;;;;67.07;28.43;;;11.60;97.30;;;;;;5049720;28;20184;-76
2021/10/29 17:02:12;;;;;;;52.60;24.30;;;11.50;97.30;;;;;;5049839;28;20196;-76
2021/10/29 17:04:38;;;;;;;60.77;28.63;;;11.50;97.30;;;;;;5049670;28;20195;-78
2021/10/29 17:07:04;;;;;;;64.40;28.20;;;11.50;97.30;;;;;;5049711;28;20211;-78
2021/10/29 17:09:30;;;;;;;56.97;26.17;;;11.50;97.30;;;;;;5050886;28;20919;-78
2021/10/29 17:11:56;;;;;;;54.43;26.70;;;11.60;97.30;;;;;;5049989;28;20449;-77
2021/10/29 17:14:23;;;;;;;59.37;27.37;;;11.60;97.30;;;;;;5051282;28;20306;-77
2021/10/29 17:16:48;;;;;;;52.53;26.50;;;11.60;97.30;;;;;;5066316;28;20456;-78
2021/10/29 17:19:14;;;;;;;69.37;28.90;;;11.50;97.30;;;;;;5050574;28;20781;-78
2021/10/29 17:21:39;;;;;;;54.70;26.20;;;11.40;97.30;;;;;;5049603;28;20192;-78
2021/10/29 17:24:05;;;;;;;60.00;27.10;;;11.30;97.30;;;;;;5066547;28;20167;-78
2021/10/29 17:26:32;;;;;;;55.40;26.10;;;11.10;97.30;;;;;;5066369;28;20172;-78
2021/10/29 17:28:59;;;;;;;55.47;25.83;;;11.00;97.30;;;;;;5049731;28;20194;-78
2021/10/29 17:31:24;;;;;;;56.90;24.20;;;10.80;97.30;;;;;;5050608;28;20415;-78
2021/10/29 17:33:50;;;;;;;54.80;25.00;;;10.80;97.30;;;;;;5049560;28;20437;-77